Time;durP1;ratioP1;P1;durP2;ratioP2;P2;SDS_P1;SDS_P2;PMS_P1;PMS_P2;Temp;Humidity;BMP_temperature;BMP_pressure;BME280_temperature;BME280_humidity;BME280_pressure;Samples;Min_cycle;Max_cycle;Signal;HPM_P1;HPM_P2
2021/07/28 00:00:15;;;;;;;10.98;9.70;;;21.30;99.90;;;;;;5071438;28;20201;-62
2021/07/28 00:02:42;;;;;;;12.85;9.63;;;21.30;99.90;;;;;;5071428;28;20635;-62
2021/07/28 00:05:11;;;;;;;10.95;9.43;;;21.30;99.90;;;;;;5071190;28;20259;-62
2021/07/28 00:07:38;;;;;;;10.63;8.75;;;21.40;99.90;;;;;;5070950;28;20215;-62
2021/07/28 00:10:05;;;;;;;10.00;9.00;;;21.40;99.90;;;;;;5071259;28;20672;-62
2021/07/28 00:12:32;;;;;;;10.75;8.98;;;21.40;99.90;;;;;;5071278;28;20231;-62
2021/07/28 00:14:59;;;;;;;12.38;9.18;;;21.40;99.90;;;;;;5071050;28;20208;-62
2021/07/28 00:17:27;;;;;;;11.05;9.48;;;21.50;99.90;;;;;;5071179;28;20278;-62
2021/07/28 00:19:56;;;;;;;13.07;9.30;;;21.40;99.90;;;;;;5071183;28;20240;-62
2021/07/28 00:25:09;;;;;;;11.65;9.35;;;21.40;99.90;;;;;;5070902;28;20215;-62
2021/07/28 00:27:36;;;;;;;11.27;10.02;;;21.40;99.90;;;;;;5071174;28;20205;-62
2021/07/28 00:30:06;;;;;;;11.25;9.43;;;21.40;99.90;;;;;;5070986;28;20204;-62
2021/07/28 00:32:33;;;;;;;10.95;9.43;;;21.30;99.90;;;;;;5071317;28;20201;-62
2021/07/28 00:35:00;;;;;;;11.95;10.68;;;21.10;99.90;;;;;;5070740;28;20236;-62
2021/07/28 00:37:28;;;;;;;11.55;9.35;;;21.00;99.90;;;;;;5071089;28;20221;-62
2021/07/28 00:39:55;;;;;;;13.20;9.82;;;20.90;99.90;;;;;;5070707;28;20295;-62
2021/07/28 00:42:21;;;;;;;11.27;9.65;;;21.00;99.90;;;;;;5070973;28;20228;-62
2021/07/28 00:44:48;;;;;;;11.20;10.05;;;21.10;99.90;;;;;;5071013;28;20205;-62
2021/07/28 00:47:15;;;;;;;11.18;9.25;;;21.10;99.90;;;;;;5070753;28;20221;-62
2021/07/28 00:49:41;;;;;;;10.70;9.60;;;21.10;99.90;;;;;;5070849;28;20533;-62
2021/07/28 00:52:09;;;;;;;10.85;9.70;;;21.10;99.90;;;;;;5070813;28;20216;-62
2021/07/28 00:54:39;;;;;;;12.68;9.60;;;21.10;99.90;;;;;;5070565;28;20219;-62
2021/07/28 00:57:07;;;;;;;10.88;9.73;;;21.10;99.90;;;;;;5071226;28;20265;-62
2021/07/28 00:59:34;;;;;;;14.70;10.57;;;21.10;99.90;;;;;;5070537;28;20209;-62
2021/07/28 01:02:00;;;;;;;12.07;10.30;;;21.10;99.90;;;;;;5070414;28;20628;-62
2021/07/28 01:04:27;;;;;;;12.57;10.25;;;20.90;99.90;;;;;;5070449;28;20688;-62
2021/07/28 01:06:54;;;;;;;11.40;10.30;;;20.70;99.90;;;;;;5070466;28;20228;-62
2021/07/28 01:09:20;;;;;;;11.88;10.63;;;20.50;99.90;;;;;;5070570;28;20262;-62
2021/07/28 01:11:49;;;;;;;12.35;10.38;;;20.30;99.90;;;;;;5070819;28;20205;-62
2021/07/28 01:14:17;;;;;;;11.52;9.45;;;20.40;99.90;;;;;;5070358;28;20746;-62
2021/07/28 01:16:47;;;;;;;11.80;10.32;;;20.40;99.90;;;;;;5070513;28;20231;-62
2021/07/28 01:19:18;;;;;;;11.05;9.30;;;20.40;99.90;;;;;;5072118;28;20738;-62
2021/07/28 01:21:46;;;;;;;11.18;9.05;;;20.40;99.90;;;;;;5075290;28;20226;-62
2021/07/28 01:24:15;;;;;;;10.77;9.07;;;20.30;99.90;;;;;;5074639;28;20315;-62
2021/07/28 01:26:43;;;;;;;12.25;10.07;;;20.30;99.90;;;;;;5074619;28;20605;-62
2021/07/28 01:29:11;;;;;;;8.40;7.53;;;20.40;99.90;;;;;;5074430;28;20639;-62
2021/07/28 01:31:40;;;;;;;9.50;8.38;;;20.50;99.90;;;;;;5074425;28;20215;-62
2021/07/28 01:34:07;;;;;;;10.82;8.57;;;20.40;99.90;;;;;;5074129;28;20288;-62
2021/07/28 01:36:34;;;;;;;10.98;9.88;;;20.50;99.90;;;;;;5074129;28;20259;-62
2021/07/28 01:39:03;;;;;;;15.23;10.23;;;20.60;99.90;;;;;;5074080;28;20205;-62
2021/07/28 01:41:31;;;;;;;11.82;10.10;;;20.60;99.90;;;;;;5074138;28;20738;-62
2021/07/28 01:43:58;;;;;;;12.07;10.88;;;20.70;99.90;;;;;;5073964;28;20225;-62
2021/07/28 01:46:24;;;;;;;10.45;9.43;;;20.80;99.90;;;;;;5073847;28;20247;-62
2021/07/28 01:48:51;;;;;;;13.23;9.65;;;20.80;99.90;;;;;;5074136;28;20212;-62
2021/07/28 01:51:18;;;;;;;10.85;9.75;;;20.80;99.90;;;;;;5074159;28;20651;-62
2021/07/28 01:53:44;;;;;;;10.23;9.18;;;20.80;99.90;;;;;;5073981;28;20278;-62
2021/07/28 01:56:11;;;;;;;9.35;8.55;;;20.80;99.90;;;;;;5073850;28;20232;-62
2021/07/28 01:58:42;;;;;;;14.23;9.50;;;20.90;99.90;;;;;;5073725;28;20201;-62
2021/07/28 02:01:08;;;;;;;12.43;10.48;;;20.90;99.90;;;;;;5073638;28;20209;-62
2021/07/28 02:03:35;;;;;;;11.88;10.15;;;20.90;99.90;;;;;;5073645;28;20225;-62
2021/07/28 02:06:02;;;;;;;15.30;10.65;;;20.80;99.90;;;;;;5073661;28;20281;-62
2021/07/28 02:08:29;;;;;;;12.15;10.52;;;20.90;99.90;;;;;;5073724;28;20287;-62
2021/07/28 02:10:55;;;;;;;11.35;9.43;;;20.90;99.90;;;;;;5073564;28;20212;-62
2021/07/28 02:13:23;;;;;;;11.75;10.50;;;20.90;99.90;;;;;;5073412;28;20246;-62
2021/07/28 02:15:51;;;;;;;13.18;10.38;;;20.80;99.90;;;;;;5073493;28;20720;-62
2021/07/28 02:18:18;;;;;;;10.48;9.32;;;20.90;99.90;;;;;;5073672;28;20209;-62
2021/07/28 02:20:45;;;;;;;11.55;10.35;;;20.90;99.90;;;;;;5073371;28;20299;-62
2021/07/28 02:23:12;;;;;;;11.73;10.52;;;20.80;99.90;;;;;;5073410;28;20270;-62
2021/07/28 02:25:38;;;;;;;10.82;9.73;;;20.80;99.90;;;;;;5073256;28;20229;-62
2021/07/28 02:28:05;;;;;;;11.35;10.15;;;20.80;99.90;;;;;;5073115;28;20266;-62
2021/07/28 02:30:32;;;;;;;10.63;9.52;;;20.60;99.90;;;;;;5072833;28;20600;-62
2021/07/28 02:33:00;;;;;;;10.48;8.82;;;20.60;99.90;;;;;;5073782;28;20201;-62
2021/07/28 02:35:27;;;;;;;10.05;9.05;;;20.70;99.90;;;;;;5072997;28;20298;-63
2021/07/28 02:37:53;;;;;;;10.38;9.10;;;20.70;99.90;;;;;;5073085;28;20212;-63
2021/07/28 02:40:21;;;;;;;10.50;8.75;;;20.60;99.90;;;;;;5073006;28;20223;-63
2021/07/28 02:42:49;;;;;;;8.73;7.72;;;20.70;99.90;;;;;;5072789;28;20209;-63
2021/07/28 02:45:15;;;;;;;9.40;6.93;;;20.70;99.90;;;;;;5072851;28;20262;-62
2021/07/28 02:47:42;;;;;;;7.95;7.15;;;20.70;99.90;;;;;;5072980;28;20212;-62
2021/07/28 02:50:11;;;;;;;8.77;7.57;;;20.70;99.90;;;;;;5072965;28;20307;-63
2021/07/28 02:52:38;;;;;;;8.50;7.60;;;20.70;99.90;;;;;;5073032;28;20205;-63
2021/07/28 02:55:06;;;;;;;10.32;8.60;;;20.70;99.90;;;;;;5072656;28;20208;-62
2021/07/28 02:57:33;;;;;;;13.18;10.20;;;20.70;99.90;;;;;;5072896;28;20205;-62
2021/07/28 03:00:00;;;;;;;11.85;9.75;;;20.60;99.90;;;;;;5073131;28;20748;-62
2021/07/28 03:02:27;;;;;;;11.57;10.38;;;20.50;99.90;;;;;;5073012;28;20584;-62
2021/07/28 03:04:54;;;;;;;11.00;9.63;;;20.40;99.90;;;;;;5072431;28;20229;-63
2021/07/28 03:07:22;;;;;;;11.70;10.45;;;20.40;99.90;;;;;;5072413;28;20267;-62
2021/07/28 03:09:49;;;;;;;16.33;11.25;;;20.40;99.90;;;;;;5072374;28;20208;-62
2021/07/28 03:12:15;;;;;;;11.68;10.43;;;20.30;99.90;;;;;;5072672;28;20274;-62
2021/07/28 03:14:42;;;;;;;12.18;10.85;;;20.30;99.90;;;;;;5072153;28;20677;-62
2021/07/28 03:17:09;;;;;;;12.93;11.23;;;20.20;99.90;;;;;;5072339;28;20220;-62
2021/07/28 03:19:35;;;;;;;12.32;11.10;;;20.20;99.90;;;;;;5072202;28;20666;-62
2021/07/28 03:22:02;;;;;;;13.10;11.80;;;20.20;99.90;;;;;;5072168;28;20567;-62
2021/07/28 03:24:30;;;;;;;14.88;11.38;;;20.10;99.90;;;;;;5071778;28;20233;-63
2021/07/28 03:26:57;;;;;;;15.30;12.15;;;20.10;99.90;;;;;;5071978;28;20642;-62
2021/07/28 03:29:23;;;;;;;13.65;11.82;;;20.10;99.90;;;;;;5072154;28;20205;-62
2021/07/28 03:31:50;;;;;;;12.75;11.45;;;20.10;99.90;;;;;;5072162;28;20205;-62
2021/07/28 03:34:17;;;;;;;12.98;11.45;;;20.10;99.90;;;;;;5071834;28;20283;-62
2021/07/28 03:36:44;;;;;;;15.88;12.88;;;20.10;99.90;;;;;;5072201;28;20665;-63
2021/07/28 03:39:11;;;;;;;17.13;13.38;;;20.20;99.90;;;;;;5071779;28;20285;-63
2021/07/28 03:41:39;;;;;;;13.25;11.70;;;20.10;99.90;;;;;;5071082;28;20205;-63
2021/07/28 03:44:06;;;;;;;15.57;12.10;;;20.10;99.90;;;;;;5071587;28;20638;-63
2021/07/28 03:46:33;;;;;;;13.25;10.77;;;20.10;99.90;;;;;;5071656;28;20267;-63
2021/07/28 03:48:59;;;;;;;14.75;13.05;;;20.10;99.90;;;;;;5071549;28;20564;-63
2021/07/28 03:51:26;;;;;;;21.85;17.75;;;20.10;99.90;;;;;;5071650;28;20205;-63
2021/07/28 03:53:53;;;;;;;15.63;13.02;;;20.10;99.90;;;;;;5071609;28;20205;-63
2021/07/28 03:56:23;;;;;;;16.45;12.32;;;20.10;99.90;;;;;;5071705;28;20228;-63
2021/07/28 03:58:53;;;;;;;12.82;11.45;;;20.20;99.90;;;;;;5071450;28;20263;-63
2021/07/28 04:01:21;;;;;;;11.32;10.20;;;20.20;99.90;;;;;;5071636;28;20307;-63
2021/07/28 04:03:48;;;;;;;12.50;9.85;;;20.20;99.90;;;;;;5071231;28;20243;-63
2021/07/28 04:06:14;;;;;;;12.90;9.90;;;20.30;99.90;;;;;;5071274;28;20232;-63
2021/07/28 04:08:41;;;;;;;12.38;10.40;;;20.30;99.90;;;;;;5071427;28;20299;-62
2021/07/28 04:11:08;;;;;;;12.38;10.38;;;20.30;99.90;;;;;;5071305;28;20707;-63
2021/07/28 04:13:35;;;;;;;14.30;12.77;;;20.30;99.90;;;;;;5071565;28;20703;-63
2021/07/28 04:16:03;;;;;;;13.50;11.93;;;20.40;99.90;;;;;;5071441;28;20236;-63
2021/07/28 04:18:30;;;;;;;14.10;12.50;;;20.40;99.90;;;;;;5071382;28;20217;-64
2021/07/28 04:20:56;;;;;;;14.70;11.30;;;20.40;99.90;;;;;;5071600;28;20212;-63
2021/07/28 04:23:23;;;;;;;14.80;11.80;;;20.50;99.90;;;;;;5071550;28;20228;-64
2021/07/28 04:25:50;;;;;;;14.43;10.93;;;20.40;99.90;;;;;;5071599;28;20282;-63
2021/07/28 04:28:16;;;;;;;10.98;9.60;;;20.40;99.90;;;;;;5071044;28;20208;-63
2021/07/28 04:30:43;;;;;;;11.20;9.65;;;20.40;99.90;;;;;;5071032;28;20208;-63
2021/07/28 04:33:11;;;;;;;11.35;10.20;;;20.30;99.90;;;;;;5071019;28;20327;-63
2021/07/28 04:35:38;;;;;;;13.05;10.15;;;20.10;99.90;;;;;;5071132;28;20271;-62
2021/07/28 04:38:05;;;;;;;13.68;12.27;;;20.10;99.90;;;;;;5070925;28;20208;-63
2021/07/28 04:40:32;;;;;;;12.52;11.23;;;20.20;99.90;;;;;;5070988;28;20714;-64
2021/07/28 04:42:59;;;;;;;11.23;10.13;;;20.40;99.90;;;;;;5070876;28;20215;-64
2021/07/28 04:45:25;;;;;;;15.93;13.48;;;20.50;99.90;;;;;;5070295;28;20228;-64
2021/07/28 04:47:52;;;;;;;13.68;10.80;;;20.60;99.90;;;;;;5070615;28;20212;-63
2021/07/28 04:50:20;;;;;;;12.13;10.88;;;20.70;99.90;;;;;;5070995;28;20258;-63
2021/07/28 04:52:47;;;;;;;12.88;10.43;;;20.80;99.90;;;;;;5070535;28;20673;-64
2021/07/28 04:55:14;;;;;;;14.43;9.90;;;20.70;99.90;;;;;;5070383;28;20695;-63
2021/07/28 04:57:41;;;;;;;11.82;9.48;;;20.80;99.90;;;;;;5070535;28;20220;-63
2021/07/28 05:00:09;;;;;;;11.20;9.60;;;20.90;99.90;;;;;;5070616;28;20677;-63
2021/07/28 05:02:35;;;;;;;12.15;9.63;;;21.10;99.90;;;;;;5070428;28;20209;-63
2021/07/28 05:05:03;;;;;;;12.38;10.63;;;21.10;99.90;;;;;;5070475;28;20289;-64
2021/07/28 05:07:32;;;;;;;10.65;9.65;;;21.30;99.90;;;;;;5070661;28;20571;-63
2021/07/28 05:09:59;;;;;;;14.00;10.15;;;21.40;99.90;;;;;;5070475;28;20716;-63
2021/07/28 05:12:25;;;;;;;11.40;9.00;;;21.60;99.90;;;;;;5070641;28;20243;-63
2021/07/28 05:14:52;;;;;;;10.95;9.68;;;21.70;99.90;;;;;;5070202;28;20255;-63
2021/07/28 05:17:20;;;;;;;10.05;8.95;;;21.70;99.90;;;;;;5070810;28;20509;-64
2021/07/28 05:19:47;;;;;;;11.13;9.70;;;21.70;99.90;;;;;;5070462;28;20251;-63
2021/07/28 05:22:14;;;;;;;12.55;9.18;;;21.80;99.90;;;;;;5070493;28;20258;-63
2021/07/28 05:24:42;;;;;;;11.23;9.77;;;21.80;99.90;;;;;;5070639;28;20227;-63
2021/07/28 05:27:08;;;;;;;9.43;8.38;;;21.80;99.90;;;;;;5070296;28;20225;-63
2021/07/28 05:29:35;;;;;;;9.75;8.75;;;21.80;99.90;;;;;;5070216;28;20224;-63
2021/07/28 05:32:02;;;;;;;10.20;9.15;;;21.80;99.90;;;;;;5071015;28;20235;-63
2021/07/28 05:34:28;;;;;;;9.15;8.25;;;21.80;99.90;;;;;;5070463;28;20205;-63
2021/07/28 05:36:57;;;;;;;9.57;8.63;;;21.70;99.90;;;;;;5071093;28;20236;-64
2021/07/28 05:39:24;;;;;;;10.18;8.52;;;21.60;99.90;;;;;;5070346;28;20236;-64
2021/07/28 05:41:52;;;;;;;10.68;9.25;;;21.60;99.90;;;;;;5071215;28;20254;-64
2021/07/28 05:44:18;;;;;;;9.68;8.52;;;21.60;99.90;;;;;;5070758;28;20290;-62
2021/07/28 05:46:45;;;;;;;10.15;9.13;;;21.60;99.90;;;;;;5070548;28;20473;-64
2021/07/28 05:49:12;;;;;;;11.30;9.18;;;21.60;99.90;;;;;;5070960;28;20267;-63
2021/07/28 05:51:38;;;;;;;9.25;8.25;;;21.70;99.90;;;;;;5070718;28;20262;-63
2021/07/28 05:54:05;;;;;;;15.70;13.43;;;21.80;99.90;;;;;;5070407;28;20204;-64
2021/07/28 05:56:32;;;;;;;9.27;8.38;;;21.90;99.90;;;;;;5070090;28;20229;-64
2021/07/28 05:59:00;;;;;;;10.10;8.13;;;22.00;99.90;;;;;;5069962;28;20204;-63
2021/07/28 06:01:26;;;;;;;8.40;7.18;;;22.10;99.90;;;;;;5070119;28;20209;-64
2021/07/28 06:03:53;;;;;;;8.35;7.50;;;22.20;99.90;;;;;;5069866;28;20621;-64
2021/07/28 06:06:20;;;;;;;9.07;7.72;;;22.30;99.90;;;;;;5072853;28;20666;-64
2021/07/28 06:08:46;;;;;;;8.77;7.57;;;22.30;99.90;;;;;;5073629;28;20204;-63
2021/07/28 06:11:13;;;;;;;10.75;7.05;;;22.30;99.90;;;;;;5073507;28;20200;-63
2021/07/28 06:13:40;;;;;;;6.13;5.47;;;22.30;99.90;;;;;;5073662;28;20205;-64
2021/07/28 06:16:08;;;;;;;6.63;5.18;;;22.40;99.90;;;;;;5073271;28;20229;-64
2021/07/28 06:18:34;;;;;;;5.13;4.63;;;22.50;99.90;;;;;;5073287;28;20223;-63
2021/07/28 06:21:02;;;;;;;6.75;4.68;;;22.40;99.90;;;;;;5073847;28;20278;-63
2021/07/28 06:23:29;;;;;;;5.13;4.63;;;22.40;99.90;;;;;;5073187;28;20296;-64
2021/07/28 06:25:56;;;;;;;5.55;4.55;;;22.30;99.90;;;;;;5073258;28;20233;-63
2021/07/28 06:28:22;;;;;;;4.88;4.25;;;22.20;99.90;;;;;;5073230;28;20212;-64
2021/07/28 06:30:51;;;;;;;5.15;4.20;;;22.30;99.90;;;;;;5073282;28;20204;-64
2021/07/28 06:33:19;;;;;;;4.78;4.30;;;22.50;99.90;;;;;;5073598;28;20237;-65
2021/07/28 06:35:47;;;;;;;5.43;4.22;;;22.80;99.90;;;;;;5073039;28;20237;-64
2021/07/28 06:38:14;;;;;;;5.18;4.57;;;23.10;99.90;;;;;;5072691;28;20614;-64
2021/07/28 06:40:41;;;;;;;7.05;4.50;;;23.40;99.90;;;;;;5073222;28;20629;-64
2021/07/28 06:43:08;;;;;;;6.90;4.72;;;23.70;99.90;;;;;;5073235;28;20234;-64
2021/07/28 06:45:35;;;;;;;11.05;7.20;;;23.80;99.90;;;;;;5073018;28;20235;-64
2021/07/28 06:48:02;;;;;;;6.40;5.28;;;23.90;99.90;;;;;;5073261;28;20238;-64
2021/07/28 06:50:30;;;;;;;10.32;8.10;;;23.90;99.90;;;;;;5072930;28;20209;-64
2021/07/28 06:52:57;;;;;;;8.55;6.30;;;23.80;99.90;;;;;;5073053;28;20578;-64
2021/07/28 06:55:24;;;;;;;5.38;4.78;;;23.80;99.90;;;;;;5072980;28;20228;-64
2021/07/28 06:57:50;;;;;;;6.20;5.60;;;23.90;99.90;;;;;;5072915;28;20288;-64
2021/07/28 07:00:17;;;;;;;6.18;5.00;;;23.80;99.90;;;;;;5072992;28;20239;-64
2021/07/28 07:02:44;;;;;;;5.15;4.63;;;23.80;99.90;;;;;;5072864;28;20209;-63
2021/07/28 07:05:11;;;;;;;7.55;4.57;;;23.70;99.90;;;;;;5072285;28;20225;-62
2021/07/28 07:07:40;;;;;;;6.72;4.07;;;23.60;99.90;;;;;;5072839;28;20296;-61
2021/07/28 07:10:08;;;;;;;5.28;4.30;;;23.50;99.90;;;;;;5072807;28;20236;-61
2021/07/28 07:12:35;;;;;;;5.38;4.35;;;23.30;99.90;;;;;;5072554;28;20255;-57
2021/07/28 07:15:06;;;;;;;5.00;4.50;;;22.90;99.90;;;;;;5072217;28;20205;-60
2021/07/28 07:17:33;;;;;;;6.82;5.10;;;22.60;99.90;;;;;;5071382;28;20213;-63
2021/07/28 07:20:00;;;;;;;6.15;4.65;;;22.60;99.90;;;;;;5072535;28;20211;-58
2021/07/28 07:22:26;;;;;;;5.75;5.15;;;22.70;99.90;;;;;;5072222;28;20204;-58
2021/07/28 07:24:54;;;;;;;6.28;5.13;;;22.80;99.90;;;;;;5072164;28;20635;-58
2021/07/28 07:27:21;;;;;;;6.38;5.47;;;22.90;99.90;;;;;;5072495;28;20229;-62
2021/07/28 07:29:48;;;;;;;5.82;5.32;;;23.00;99.90;;;;;;5072337;28;20209;-60
2021/07/28 07:32:19;;;;;;;6.80;4.50;;;23.20;99.90;;;;;;5072665;28;20213;-63
2021/07/28 07:34:46;;;;;;;8.57;5.20;;;23.20;99.90;;;;;;5072604;28;20205;-61
2021/07/28 07:37:12;;;;;;;7.65;5.15;;;23.30;99.90;;;;;;5072462;28;20720;-61
2021/07/28 07:39:39;;;;;;;5.85;5.05;;;23.40;99.90;;;;;;5072228;28;20204;-62
2021/07/28 07:42:07;;;;;;;6.95;4.75;;;23.60;99.90;;;;;;5072236;28;20208;-59
2021/07/28 07:44:34;;;;;;;6.22;5.40;;;23.70;99.90;;;;;;5072376;28;20670;-58
2021/07/28 07:47:01;;;;;;;5.00;4.50;;;23.80;99.90;;;;;;5072471;28;20221;-62
2021/07/28 07:49:27;;;;;;;5.63;5.03;;;23.80;99.90;;;;;;5073031;28;20208;-62
2021/07/28 07:51:54;;;;;;;6.13;4.60;;;23.80;99.90;;;;;;5073132;28;20213;-60
2021/07/28 07:54:21;;;;;;;5.47;4.68;;;23.80;99.90;;;;;;5072311;28;20212;-61
2021/07/28 07:56:47;;;;;;;6.10;5.07;;;23.90;99.90;;;;;;5072539;28;20224;-59
2021/07/28 07:59:15;;;;;;;6.07;4.97;;;24.00;99.90;;;;;;5071775;28;20594;-59
2021/07/28 08:01:42;;;;;;;5.10;4.60;;;24.20;99.90;;;;;;5072360;28;20791;-62
2021/07/28 08:04:08;;;;;;;5.25;4.72;;;24.30;99.90;;;;;;5071971;28;20224;-62
2021/07/28 08:06:35;;;;;;;5.95;5.35;;;24.20;99.90;;;;;;5071760;28;20240;-60
2021/07/28 08:09:02;;;;;;;5.75;4.93;;;24.30;99.90;;;;;;5071441;28;20205;-61
2021/07/28 08:11:28;;;;;;;5.88;5.10;;;24.30;99.90;;;;;;5071362;28;20204;-61
2021/07/28 08:13:55;;;;;;;8.15;5.30;;;24.30;99.90;;;;;;5071134;28;20205;-59
2021/07/28 08:16:23;;;;;;;7.32;5.28;;;24.20;99.90;;;;;;5071304;28;20216;-60
2021/07/28 08:18:51;;;;;;;7.82;5.05;;;24.00;99.90;;;;;;5071262;28;20205;-61
2021/07/28 08:21:18;;;;;;;8.15;5.75;;;23.90;99.90;;;;;;5071256;28;20205;-60
2021/07/28 08:23:47;;;;;;;7.93;5.65;;;23.80;99.90;;;;;;5070797;28;20628;-60
2021/07/28 08:26:14;;;;;;;6.28;5.55;;;23.70;99.90;;;;;;5070821;28;20228;-60
2021/07/28 08:28:41;;;;;;;7.25;4.50;;;23.60;99.90;;;;;;5070516;28;20564;-61
2021/07/28 08:31:08;;;;;;;6.68;4.55;;;23.60;99.90;;;;;;5071041;28;20212;-61
2021/07/28 08:33:36;;;;;;;6.72;4.53;;;23.40;99.90;;;;;;5070822;28;20205;-61
2021/07/28 08:36:03;;;;;;;5.70;4.55;;;23.30;99.90;;;;;;5070937;28;20235;-61
2021/07/28 08:38:30;;;;;;;7.43;4.50;;;23.20;99.90;;;;;;5070760;28;20212;-61
2021/07/28 08:41:00;;;;;;;5.95;4.40;;;23.10;99.90;;;;;;5070494;28;20684;-61
2021/07/28 08:43:29;;;;;;;5.88;4.43;;;23.10;99.90;;;;;;5071581;28;20208;-61
2021/07/28 08:45:58;;;;;;;5.88;4.50;;;23.00;99.90;;;;;;5070638;28;20278;-62
2021/07/28 08:48:25;;;;;;;4.97;4.43;;;23.00;99.90;;;;;;5070854;28;20208;-61
2021/07/28 08:50:55;;;;;;;5.65;4.63;;;23.00;99.90;;;;;;5070747;28;20288;-62
2021/07/28 08:53:22;;;;;;;6.82;4.60;;;23.10;99.90;;;;;;5070805;28;20894;-61
2021/07/28 08:55:48;;;;;;;7.35;4.63;;;23.20;99.90;;;;;;5070484;28;20235;-62
2021/07/28 08:58:16;;;;;;;5.53;4.40;;;23.30;99.90;;;;;;5070576;28;20274;-62
2021/07/28 09:00:43;;;;;;;5.35;4.22;;;23.30;99.90;;;;;;5070494;28;20212;-61
2021/07/28 09:03:10;;;;;;;6.70;4.43;;;23.40;99.90;;;;;;5070387;28;20696;-61
2021/07/28 09:05:40;;;;;;;4.75;4.22;;;23.40;99.90;;;;;;5070224;28;20235;-62
2021/07/28 09:08:22;;;;;;;7.63;4.15;;;23.40;99.90;;;;;;5070217;28;20208;-62
2021/07/28 09:10:50;;;;;;;8.00;4.75;;;23.50;99.90;;;;;;5070846;28;20266;-62
2021/07/28 09:13:29;;;;;;;6.38;4.72;;;23.70;99.90;;;;;;5070493;28;20241;-62
2021/07/28 09:15:58;;;;;;;7.22;4.40;;;24.10;99.90;;;;;;5070243;28;20234;-61
2021/07/28 09:18:33;;;;;;;5.30;3.90;;;24.20;99.90;;;;;;5070071;28;20254;-61
2021/07/28 09:21:01;;;;;;;4.28;3.88;;;24.50;99.90;;;;;;5070111;28;20239;-62
2021/07/28 09:23:40;;;;;;;9.15;8.20;;;24.80;99.90;;;;;;5070324;28;20665;-62
2021/07/28 09:26:33;;;;;;;5.65;3.50;;;24.80;99.90;;;;;;5070508;28;20319;-62
2021/07/28 09:29:05;;;;;;;4.30;3.90;;;25.00;99.90;;;;;;5070183;28;20205;-62
2021/07/28 09:31:38;;;;;;;8.75;3.90;;;25.20;99.90;;;;;;5070510;28;20235;-62
2021/07/28 09:34:29;;;;;;;5.32;3.88;;;25.50;99.90;;;;;;5070402;28;20205;-61
2021/07/28 09:36:57;;;;;;;5.82;3.85;;;25.90;99.90;;;;;;5070650;28;20237;-60
2021/07/28 09:39:26;;;;;;;4.43;3.65;;;26.00;99.90;;;;;;5069878;28;20673;-60
2021/07/28 09:41:54;;;;;;;4.00;3.58;;;26.00;99.90;;;;;;5074134;28;20205;-60
2021/07/28 09:44:25;;;;;;;5.47;3.63;;;26.20;99.90;;;;;;5073973;28;20259;-58
2021/07/28 09:47:06;;;;;;;3.40;3.10;;;26.40;99.90;;;;;;5073837;28;20311;-60
2021/07/28 09:49:34;;;;;;;5.00;3.78;;;26.60;99.90;;;;;;5073729;28;20209;-60
2021/07/28 09:52:16;;;;;;;5.10;3.20;;;26.90;99.90;;;;;;5073673;28;20204;-60
2021/07/28 09:54:44;;;;;;;4.35;3.60;;;27.10;99.90;;;;;;5073501;28;20244;-60
2021/07/28 09:57:15;;;;;;;5.40;3.45;;;27.40;99.90;;;;;;5073667;28;20224;-60
2021/07/28 09:59:46;;;;;;;4.55;3.30;;;27.40;99.90;;;;;;5070082;28;20438;-62
2021/07/28 10:02:14;;;;;;;5.47;3.40;;;27.50;99.90;;;;;;5073597;28;20288;-62
2021/07/28 10:04:47;;;;;;;3.13;2.90;;;27.80;99.90;;;;;;5073494;28;20217;-62
2021/07/28 10:07:16;;;;;;;3.90;3.38;;;28.00;99.90;;;;;;5073298;28;20229;-63
2021/07/28 10:09:50;;;;;;;3.75;3.35;;;28.00;99.90;;;;;;5081665;28;20565;-61
2021/07/28 10:12:18;;;;;;;4.63;3.40;;;28.00;99.90;;;;;;5053028;28;20662;-62
2021/07/28 10:14:46;;;;;;;4.80;3.40;;;28.00;99.90;;;;;;5053072;28;20213;-63
2021/07/28 10:17:13;;;;;;;6.32;3.50;;;28.00;99.90;;;;;;5054003;28;20221;-66
2021/07/28 10:19:40;;;;;;;5.25;3.40;;;28.10;99.90;;;;;;5053951;28;20233;-62
2021/07/28 10:22:07;;;;;;;5.93;3.15;;;28.10;99.90;;;;;;5053988;28;20237;-63
2021/07/28 10:24:34;;;;;;;7.40;3.70;;;28.30;99.90;;;;;;5053576;28;20241;-62
2021/07/28 10:27:04;;;;;;;4.78;3.22;;;28.40;99.90;;;;;;5053221;28;20237;-62
2021/07/28 10:29:30;;;;;;;5.10;3.13;;;28.50;99.90;;;;;;5052736;28;20275;-62
2021/07/28 10:31:57;;;;;;;3.30;2.90;;;28.50;99.90;;;;;;5053547;28;20202;-62
2021/07/28 10:34:26;;;;;;;2.97;2.70;;;28.40;99.90;;;;;;5053222;28;20205;-63
2021/07/28 10:36:54;;;;;;;2.80;2.50;;;28.40;99.80;;;;;;5052906;28;20299;-63
2021/07/28 10:39:38;;;;;;;3.40;3.10;;;28.50;99.70;;;;;;5068892;28;20209;-62
2021/07/28 10:42:07;;;;;;;4.07;2.97;;;28.60;99.30;;;;;;5073373;28;20205;-61
2021/07/28 10:45:00;;;;;;;4.05;3.10;;;28.50;99.20;;;;;;5072993;28;20200;-61
2021/07/28 10:47:34;;;;;;;3.38;2.97;;;28.50;99.30;;;;;;5073040;28;20770;-61
2021/07/28 10:50:01;;;;;;;3.95;2.90;;;28.70;98.40;;;;;;5072942;28;20204;-61
2021/07/28 10:52:39;;;;;;;3.78;2.80;;;28.70;98.30;;;;;;5072711;28;20209;-60
2021/07/28 10:55:15;;;;;;;4.07;3.40;;;28.60;97.80;;;;;;5073124;28;20254;-59
2021/07/28 10:58:21;;;;;;;4.63;3.08;;;28.60;97.50;;;;;;5073045;28;20204;-60
2021/07/28 11:01:01;;;;;;;3.10;2.80;;;28.60;97.60;;;;;;5072817;28;20594;-59
2021/07/28 11:03:29;;;;;;;3.83;3.10;;;28.70;97.50;;;;;;5072295;28;20665;-60
2021/07/28 11:06:28;;;;;;;3.65;2.92;;;28.70;96.70;;;;;;5070711;28;20229;-61
2021/07/28 11:09:15;;;;;;;4.38;2.92;;;28.80;96.80;;;;;;5072301;28;20205;-63
2021/07/28 11:11:48;;;;;;;4.07;3.30;;;28.80;96.50;;;;;;5072507;28;20215;-63
2021/07/28 11:14:15;;;;;;;4.43;3.00;;;28.80;96.30;;;;;;5072232;28;20209;-62
2021/07/28 11:16:51;;;;;;;3.53;2.90;;;28.60;96.40;;;;;;5072343;28;20225;-62
2021/07/28 11:19:19;;;;;;;3.38;2.65;;;28.50;96.10;;;;;;5072408;28;20656;-63
2021/07/28 11:21:46;;;;;;;3.53;2.97;;;28.40;96.20;;;;;;5071998;28;20220;-65
2021/07/28 11:24:13;;;;;;;3.55;2.90;;;28.50;95.90;;;;;;5072137;28;20201;-64
2021/07/28 11:26:41;;;;;;;3.92;3.17;;;28.50;95.60;;;;;;5071889;28;20229;-63
2021/07/28 11:29:10;;;;;;;4.97;2.78;;;28.60;95.80;;;;;;5071744;28;20205;-63
2021/07/28 11:31:39;;;;;;;4.72;2.85;;;28.80;95.40;;;;;;5072022;28;20208;-64
2021/07/28 11:34:13;;;;;;;3.30;2.90;;;28.90;95.60;;;;;;5071366;28;20209;-65
2021/07/28 11:36:41;;;;;;;5.38;2.95;;;28.80;95.20;;;;;;5071597;28;20260;-67
2021/07/28 11:39:17;;;;;;;6.38;2.80;;;28.60;95.20;;;;;;5071415;28;20209;-64
2021/07/28 11:41:45;;;;;;;3.15;2.50;;;28.40;95.10;;;;;;5071662;28;20288;-64
2021/07/28 11:44:12;;;;;;;6.30;3.10;;;28.30;95.40;;;;;;5071361;28;20239;-62
2021/07/28 11:46:39;;;;;;;3.92;3.53;;;28.20;95.40;;;;;;5071125;28;20359;-61
2021/07/28 11:49:07;;;;;;;3.88;2.80;;;28.10;95.60;;;;;;5071480;28;20247;-62
2021/07/28 11:51:37;;;;;;;4.10;2.75;;;28.00;95.40;;;;;;5071886;28;20205;-62
2021/07/28 11:54:10;;;;;;;3.47;3.03;;;28.00;95.60;;;;;;5071668;28;20205;-62
2021/07/28 11:56:37;;;;;;;4.35;3.28;;;28.10;94.90;;;;;;5071575;28;20228;-63
2021/07/28 11:59:04;;;;;;;5.15;3.13;;;27.90;95.40;;;;;;5071208;28;20602;-62
2021/07/28 12:01:33;;;;;;;3.95;3.00;;;27.80;95.60;;;;;;5071654;28;20209;-62
2021/07/28 12:04:03;;;;;;;3.78;3.17;;;27.70;95.50;;;;;;5070842;28;20213;-65
2021/07/28 12:06:34;;;;;;;3.75;3.38;;;27.60;96.00;;;;;;5071016;28;20236;-67
2021/07/28 12:09:16;;;;;;;5.40;3.28;;;27.50;96.10;;;;;;5071527;28;20213;-62
2021/07/28 12:11:48;;;;;;;3.53;3.00;;;27.50;96.50;;;;;;5071157;28;20215;-61
2021/07/28 12:14:32;;;;;;;4.65;2.88;;;27.50;96.50;;;;;;5071363;28;20278;-61
2021/07/28 12:17:01;;;;;;;4.13;2.90;;;27.40;96.40;;;;;;5071085;28;20221;-61
2021/07/28 12:19:30;;;;;;;5.57;3.13;;;27.40;96.70;;;;;;5071109;28;20201;-64
2021/07/28 12:21:59;;;;;;;5.03;3.05;;;27.20;97.20;;;;;;5061088;28;20209;-65
2021/07/28 12:24:36;;;;;;;5.85;3.17;;;27.30;97.10;;;;;;5050896;28;20213;-63
2021/07/28 12:27:39;;;;;;;3.60;3.30;;;27.30;96.40;;;;;;5050992;28;20236;-62
2021/07/28 12:30:21;;;;;;;4.55;3.08;;;27.50;95.90;;;;;;5051326;28;20216;-63
2021/07/28 12:32:52;;;;;;;5.18;3.30;;;27.60;95.80;;;;;;5048802;28;20215;-62
2021/07/28 12:35:36;;;;;;;3.55;3.17;;;27.60;96.40;;;;;;5050940;28;20205;-63
2021/07/28 12:38:20;;;;;;;4.35;3.10;;;27.60;95.50;;;;;;5050938;28;20224;-63
2021/07/28 12:40:51;;;;;;;4.68;3.30;;;27.70;95.30;;;;;;5050662;28;20224;-62
2021/07/28 12:43:18;;;;;;;4.18;3.10;;;27.70;95.00;;;;;;5050815;28;20209;-63
2021/07/28 12:45:45;;;;;;;4.57;3.13;;;27.70;94.50;;;;;;5050268;28;20236;-62
2021/07/28 12:48:12;;;;;;;4.47;2.97;;;27.70;94.10;;;;;;5050647;28;20590;-64
2021/07/28 12:50:41;;;;;;;4.68;3.40;;;28.00;94.20;;;;;;5050825;28;20209;-63